Time;durP1;ratioP1;P1;durP2;ratioP2;P2;SDS_P1;SDS_P2;PMS_P1;PMS_P2;Temp;Humidity;BMP_temperature;BMP_pressure;BME280_temperature;BME280_humidity;BME280_pressure;Samples;Min_cycle;Max_cycle;Signal;HPM_P1;HPM_P2
2023/05/07 00:00:59;;;;;;;;;;;14.40;99.90;;;;;;5042490;28;19971;-67
2023/05/07 00:03:26;;;;;;;;;;;14.40;99.90;;;;;;5039468;28;19932;-67
2023/05/07 00:05:53;;;;;;;;;;;14.40;99.90;;;;;;5045078;28;20375;-67
2023/05/07 00:08:20;;;;;;;;;;;14.30;99.90;;;;;;5044221;28;19925;-67
2023/05/07 00:10:48;;;;;;;;;;;14.20;99.90;;;;;;5056147;28;19925;-67
2023/05/07 00:13:14;;;;;;;;;;;14.10;99.90;;;;;;5043744;28;20011;-66
2023/05/07 00:15:41;;;;;;;;;;;14.10;99.90;;;;;;5053549;28;20011;-67
2023/05/07 00:18:08;;;;;;;;;;;14.10;99.90;;;;;;5043574;28;20466;-67
2023/05/07 00:20:34;;;;;;;;;;;14.20;99.90;;;;;;5047740;28;19978;-67
2023/05/07 00:23:01;;;;;;;;;;;14.20;99.90;;;;;;5053623;28;19932;-66
2023/05/07 00:25:28;;;;;;;;;;;14.30;99.90;;;;;;5040546;28;20352;-66
2023/05/07 00:27:57;;;;;;;;;;;14.30;99.90;;;;;;5043161;28;19925;-66
2023/05/07 00:30:24;;;;;;;;;;;14.30;99.90;;;;;;5039161;28;19924;-67
2023/05/07 00:32:51;;;;;;;;;;;14.40;99.90;;;;;;5042305;28;19925;-67
2023/05/07 00:35:17;;;;;;;;;;;14.40;99.90;;;;;;5057814;28;20483;-66
2023/05/07 00:37:44;;;;;;;;;;;14.30;99.90;;;;;;5058866;28;19925;-67
2023/05/07 00:40:11;;;;;;;;;;;14.30;99.90;;;;;;5062649;28;19925;-67
2023/05/07 00:42:38;;;;;;;;;;;14.20;99.90;;;;;;5061491;28;19929;-67
2023/05/07 00:45:07;;;;;;;;;;;14.10;99.90;;;;;;5043423;28;20032;-66
2023/05/07 00:47:34;;;;;;;;;;;14.10;99.90;;;;;;5044002;28;19932;-67
2023/05/07 00:50:01;;;;;;;;;;;14.20;99.90;;;;;;5045554;28;19932;-67
2023/05/07 00:52:28;;;;;;;;;;;14.20;99.90;;;;;;5038214;28;20432;-67
2023/05/07 00:54:56;;;;;;;;;;;14.20;99.90;;;;;;5052008;28;20391;-67
2023/05/07 00:57:25;;;;;;;;;;;14.20;99.90;;;;;;5043546;28;19925;-67
2023/05/07 00:59:52;;;;;;;;;;;14.20;99.90;;;;;;5062759;28;19947;-66
2023/05/07 01:02:20;;;;;;;;;;;14.10;99.90;;;;;;5056001;28;19936;-67
2023/05/07 01:04:47;;;;;;;;;;;14.10;99.90;;;;;;5038450;28;19925;-67
2023/05/07 01:07:15;;;;;;;;;;;14.10;99.90;;;;;;5041399;28;19936;-67
2023/05/07 01:09:42;;;;;;;;;;;14.00;99.90;;;;;;5066840;28;19932;-67
2023/05/07 01:12:09;;;;;;;;;;;14.00;99.90;;;;;;5065031;28;19951;-66
2023/05/07 01:14:36;;;;;;;;;;;14.00;99.90;;;;;;5049184;28;19929;-66
2023/05/07 01:17:02;;;;;;;;;;;13.90;99.90;;;;;;5047249;28;19925;-67
2023/05/07 01:19:31;;;;;;;;;;;13.90;99.90;;;;;;5045650;28;19925;-66
2023/05/07 01:22:03;;;;;;;;;;;13.90;99.90;;;;;;5048239;28;19935;-66
2023/05/07 01:24:32;;;;;;;;;;;13.90;99.90;;;;;;5049249;28;19983;-67
2023/05/07 01:27:01;;;;;;;;;;;13.80;99.90;;;;;;5057035;28;19924;-66
2023/05/07 01:29:30;;;;;;;;;;;13.80;99.90;;;;;;5049201;28;19932;-66
2023/05/07 01:31:59;;;;;;;;;;;13.80;99.90;;;;;;5050060;28;19925;-66
2023/05/07 01:34:26;;;;;;;;;;;13.70;99.90;;;;;;5065915;28;19932;-66
2023/05/07 01:36:53;;;;;;;;;;;13.80;99.90;;;;;;5050216;28;19929;-67
2023/05/07 01:39:20;;;;;;;;;;;13.70;99.90;;;;;;5048980;28;19974;-66
2023/05/07 01:41:48;;;;;;;;;;;13.60;99.90;;;;;;5049334;28;19975;-66
2023/05/07 01:44:15;;;;;;;;;;;13.60;99.90;;;;;;5035798;28;19929;-67
2023/05/07 01:46:42;;;;;;;;;;;13.60;99.90;;;;;;5043097;28;19925;-67
2023/05/07 01:49:09;;;;;;;;;;;13.60;99.90;;;;;;5046723;28;20318;-66
2023/05/07 01:51:36;;;;;;;;;;;13.60;99.90;;;;;;5048465;28;19925;-67
2023/05/07 01:54:03;;;;;;;;;;;13.60;99.90;;;;;;5049109;28;19925;-67
2023/05/07 01:56:30;;;;;;;;;;;13.60;99.90;;;;;;5050038;28;19932;-67
2023/05/07 01:58:58;;;;;;;;;;;13.60;99.90;;;;;;5041875;28;19925;-66
2023/05/07 02:01:25;;;;;;;;;;;13.70;99.90;;;;;;5050142;28;19931;-66
2023/05/07 02:03:52;;;;;;;;;;;13.60;99.90;;;;;;5057462;28;19924;-66
2023/05/07 02:06:23;;;;;;;;;;;13.70;99.90;;;;;;5048536;28;19925;-67
2023/05/07 02:08:53;;;;;;;;;;;13.70;99.90;;;;;;5046535;28;19975;-66
2023/05/07 02:11:20;;;;;;;;;;;13.80;99.90;;;;;;5039251;28;20002;-67
2023/05/07 02:13:47;;;;;;;;;;;13.70;99.90;;;;;;5042837;28;19960;-67
2023/05/07 02:16:16;;;;;;;;;;;13.70;99.90;;;;;;5065133;28;19968;-66
2023/05/07 02:18:42;;;;;;;;;;;13.70;99.90;;;;;;5042485;28;19924;-66
2023/05/07 02:21:09;;;;;;;;;;;13.60;99.90;;;;;;5065117;28;19928;-66
2023/05/07 02:23:36;;;;;;;;;;;13.60;99.90;;;;;;5068689;28;19925;-66
2023/05/07 02:26:03;;;;;;;;;;;13.60;99.90;;;;;;5069436;28;19925;-67
2023/05/07 02:28:30;;;;;;;;;;;13.50;99.90;;;;;;5069549;28;19963;-66
2023/05/07 02:31:03;;;;;;;;;;;13.40;99.90;;;;;;5050050;28;19974;-66
2023/05/07 02:33:31;;;;;;;;;;;13.30;99.90;;;;;;5052336;28;19925;-66
2023/05/07 02:36:06;;;;;;;;;;;13.30;99.90;;;;;;5045680;28;19988;-67
2023/05/07 02:38:34;;;;;;;;;;;13.20;99.90;;;;;;5070068;28;19925;-66
2023/05/07 02:41:00;;;;;;;;;;;13.20;99.90;;;;;;5050056;28;19955;-66
2023/05/07 02:43:27;;;;;;;;;;;13.10;99.90;;;;;;5048132;28;20419;-67
2023/05/07 02:46:01;;;;;;;;;;;13.10;99.90;;;;;;5042456;28;19925;-66
2023/05/07 02:48:28;;;;;;;;;;;13.10;99.90;;;;;;5053741;28;20467;-67
2023/05/07 02:50:56;;;;;;;;;;;13.10;99.90;;;;;;5058625;28;20391;-66
2023/05/07 02:53:25;;;;;;;;;;;13.20;99.90;;;;;;5049896;28;19925;-66
2023/05/07 02:55:52;;;;;;;;;;;13.20;99.90;;;;;;5046663;28;20384;-66
2023/05/07 02:58:18;;;;;;;;;;;13.30;99.90;;;;;;5045748;28;20330;-67
2023/05/07 03:00:45;;;;;;;;;;;13.50;99.90;;;;;;5043105;28;19995;-66
2023/05/07 03:03:30;;;;;;;;;;;13.50;99.90;;;;;;5045503;28;20295;-67
2023/05/07 03:05:59;;;;;;;;;;;13.50;99.90;;;;;;5044841;28;20031;-66
2023/05/07 03:08:26;;;;;;;;;;;13.60;99.90;;;;;;5045596;28;19992;-66
2023/05/07 03:10:53;;;;;;;;;;;13.60;99.90;;;;;;5042024;28;19929;-66
2023/05/07 03:13:20;;;;;;;;;;;13.70;99.90;;;;;;5045242;28;19929;-67
2023/05/07 03:15:47;;;;;;;;;;;13.60;99.90;;;;;;5063230;28;20019;-66
2023/05/07 03:18:14;;;;;;;;;;;13.50;99.90;;;;;;5067842;28;20472;-67
2023/05/07 03:20:41;;;;;;;;;;;13.50;99.90;;;;;;5043902;28;19931;-67
2023/05/07 03:23:09;;;;;;;;;;;13.40;99.90;;;;;;5051575;28;19970;-67
2023/05/07 03:25:36;;;;;;;;;;;13.40;99.90;;;;;;5043202;28;20016;-67
2023/05/07 03:28:04;;;;;;;;;;;13.40;99.90;;;;;;5069324;28;19960;-67
2023/05/07 03:30:39;;;;;;;;;;;13.40;99.90;;;;;;5069258;28;19968;-66
2023/05/07 03:33:06;;;;;;;;;;;13.40;99.90;;;;;;5052075;28;19931;-66
2023/05/07 03:35:33;;;;;;;;;;;13.40;99.90;;;;;;5049590;28;19925;-67
2023/05/07 03:38:00;;;;;;;;;;;13.40;99.90;;;;;;5048875;28;19955;-67
2023/05/07 03:40:31;;;;;;;;;;;13.40;99.90;;;;;;5065795;28;19935;-66
2023/05/07 03:42:58;;;;;;;;;;;13.40;99.90;;;;;;5041518;28;20396;-66
2023/05/07 03:45:27;;;;;;;;;;;13.40;99.90;;;;;;5036551;28;19924;-66
2023/05/07 03:48:06;;;;;;;;;;;13.50;99.90;;;;;;5050078;28;20304;-66
2023/05/07 03:50:33;;;;;;;;;;;13.60;99.90;;;;;;5069057;28;20366;-67
2023/05/07 03:53:00;;;;;;;;;;;13.50;99.90;;;;;;5050793;28;19932;-66
2023/05/07 03:55:28;;;;;;;;;;;13.50;99.90;;;;;;5065555;28;20028;-66
2023/05/07 03:58:00;;;;;;;;;;;13.50;99.90;;;;;;5052226;28;19932;-67
2023/05/07 04:00:28;;;;;;;;;;;13.50;99.90;;;;;;5045552;28;20378;-67
2023/05/07 04:02:59;;;;;;;;;;;13.50;99.90;;;;;;5045446;28;19924;-66
2023/05/07 04:05:30;;;;;;;;;;;13.50;99.90;;;;;;5046544;28;19975;-66
2023/05/07 04:08:01;;;;;;;;;;;13.50;99.90;;;;;;5040216;28;20373;-66
2023/05/07 04:10:35;;;;;;;;;;;13.50;99.90;;;;;;5048611;28;19972;-66
2023/05/07 04:13:08;;;;;;;;;;;13.50;99.90;;;;;;5047044;28;19968;-66
2023/05/07 04:15:36;;;;;;;;;;;13.50;99.90;;;;;;5050803;28;19925;-67
2023/05/07 04:18:06;;;;;;;;;;;13.50;99.90;;;;;;5065276;28;19925;-67
2023/05/07 04:20:36;;;;;;;;;;;13.50;99.90;;;;;;5042983;28;19925;-67
2023/05/07 04:23:03;;;;;;;;;;;13.50;99.90;;;;;;5051765;28;19961;-67
2023/05/07 04:25:31;;;;;;;;;;;13.60;99.90;;;;;;5048388;28;19929;-67
2023/05/07 04:28:06;;;;;;;;;;;13.50;99.90;;;;;;5048450;28;19960;-67
2023/05/07 04:30:34;;;;;;;;;;;13.50;99.90;;;;;;5041354;28;19971;-66
2023/05/07 04:33:03;;;;;;;;;;;13.50;99.90;;;;;;5042874;28;19925;-66
2023/05/07 04:35:31;;;;;;;;;;;13.50;99.90;;;;;;5043417;28;19925;-66
2023/05/07 04:37:59;;;;;;;;;;;13.50;99.90;;;;;;5043587;28;20324;-67
2023/05/07 04:40:26;;;;;;;;;;;13.50;99.90;;;;;;5041449;28;19933;-67
2023/05/07 04:42:52;;;;;;;;;;;13.50;99.90;;;;;;5045956;28;19925;-67
2023/05/07 04:45:20;;;;;;;;;;;13.50;99.90;;;;;;5047501;28;19939;-66
2023/05/07 04:47:50;;;;;;;;;;;13.50;99.90;;;;;;5035126;28;19925;-67
2023/05/07 04:50:19;;;;;;;;;;;13.50;99.90;;;;;;5041668;28;19925;-66
2023/05/07 04:52:47;;;;;;;;;;;13.50;99.90;;;;;;5044620;28;20012;-66
2023/05/07 04:55:14;;;;;;;;;;;13.50;99.90;;;;;;5040007;28;19929;-66
2023/05/07 04:57:42;;;;;;;;;;;13.60;99.90;;;;;;5043901;28;19972;-67
2023/05/07 05:00:14;;;;;;;;;;;13.60;99.90;;;;;;5054426;28;20015;-67
2023/05/07 05:02:41;;;;;;;;;;;13.70;99.90;;;;;;5036645;28;20392;-67
2023/05/07 05:05:10;;;;;;;;;;;13.80;99.90;;;;;;5065000;28;20015;-67
2023/05/07 05:07:37;;;;;;;;;;;13.90;99.90;;;;;;5059663;28;19924;-66
2023/05/07 05:10:06;;;;;;;;;;;13.90;99.90;;;;;;5038802;28;19931;-67
2023/05/07 05:12:35;;;;;;;;;;;14.00;99.90;;;;;;5072553;28;19924;-67
2023/05/07 05:15:02;;;;;;;;;;;14.10;99.90;;;;;;5046804;28;20015;-67
2023/05/07 05:17:29;;;;;;;;;;;14.20;99.90;;;;;;5047743;28;19929;-67
2023/05/07 05:19:57;;;;;;;;;;;14.20;99.90;;;;;;5044365;28;19931;-66
2023/05/07 05:22:26;;;;;;;;;;;14.30;99.90;;;;;;5040420;28;19967;-67
2023/05/07 05:24:53;;;;;;;;;;;14.30;99.90;;;;;;5039251;28;19925;-68
2023/05/07 05:27:22;;;;;;;;;;;14.30;99.90;;;;;;5071403;22;19932;-72
2023/05/07 05:29:48;;;;;;;;;;;14.40;99.90;;;;;;5068451;28;19935;-66
2023/05/07 05:32:15;;;;;;;;;;;14.40;99.90;;;;;;5068532;28;19956;-66
2023/05/07 05:34:42;;;;;;;;;;;14.40;99.90;;;;;;5063487;28;20299;-67
2023/05/07 05:37:09;;;;;;;;;;;14.50;99.90;;;;;;5065581;28;19924;-66
2023/05/07 05:39:37;;;;;;;;;;;14.50;99.90;;;;;;5070375;28;19924;-66
2023/05/07 05:42:05;;;;;;;;;;;14.60;99.90;;;;;;5063284;28;19925;-66
2023/05/07 05:44:35;;;;;;;;;;;14.70;99.90;;;;;;5053681;28;20008;-67
2023/05/07 05:47:02;;;;;;;;;;;14.70;99.90;;;;;;5062660;28;20289;-72
2023/05/07 05:49:29;;;;;;;;;;;14.80;99.90;;;;;;5061366;28;19932;-67
2023/05/07 05:51:56;;;;;;;;;;;14.90;99.90;;;;;;5062778;28;19963;-67
2023/05/07 05:54:25;;;;;;;;;;;15.00;99.90;;;;;;5069977;28;19924;-65
2023/05/07 05:56:54;;;;;;;;;;;15.00;99.90;;;;;;5069628;28;19932;-66
2023/05/07 05:59:21;;;;;;;;;;;15.10;99.90;;;;;;5065979;28;19925;-67
2023/05/07 06:01:48;;;;;;;;;;;15.20;99.90;;;;;;5072107;28;19955;-67
2023/05/07 06:04:14;;;;;;;;;;;15.30;99.90;;;;;;5073285;28;19932;-67
2023/05/07 06:06:42;;;;;;;;;;;15.40;99.90;;;;;;5062538;28;19940;-66
2023/05/07 06:09:09;;;;;;;;;;;15.50;99.90;;;;;;5067935;28;19925;-67
2023/05/07 06:11:41;;;;;;;;;;;15.60;99.90;;;;;;5090691;28;19924;-67
2023/05/07 06:14:09;;;;;;;;;;;15.70;99.90;;;;;;5071162;28;19924;-66
2023/05/07 06:16:37;;;;;;;;;;;15.80;99.90;;;;;;5068489;28;19932;-65
2023/05/07 06:19:05;;;;;;;;;;;15.90;99.90;;;;;;5073538;28;20330;-66
2023/05/07 06:21:32;;;;;;;;;;;16.00;99.90;;;;;;5073441;28;20395;-67
2023/05/07 06:23:59;;;;;;;;;;;16.10;99.90;;;;;;5073684;28;19936;-66
2023/05/07 06:26:26;;;;;;;;;;;16.20;99.90;;;;;;5070367;28;19924;-67
2023/05/07 06:28:53;;;;;;;;;;;16.30;99.90;;;;;;5068100;28;20027;-67
2023/05/07 06:31:21;;;;;;;;;;;16.50;99.90;;;;;;5072688;28;19935;-67
2023/05/07 06:34:02;;;;;;;;;;;16.60;99.90;;;;;;5066867;28;19932;-67
2023/05/07 06:36:34;;;;;;;;;;;16.70;99.90;;;;;;5067084;28;20023;-66
2023/05/07 06:39:05;;;;;;;;;;;16.90;99.90;;;;;;5075659;28;20349;-67
2023/05/07 06:41:32;;;;;;;;;;;17.00;99.90;;;;;;5073174;28;19932;-67
2023/05/07 06:44:06;;;;;;;;;;;17.10;99.90;;;;;;5073259;28;20376;-67
2023/05/07 06:46:45;;;;;;;;;;;17.10;99.90;;;;;;5069364;28;20406;-67
2023/05/07 06:49:13;;;;;;;;;;;17.10;99.90;;;;;;5073013;28;19924;-67
2023/05/07 06:51:40;;;;;;;;;;;17.30;99.90;;;;;;5072244;28;19932;-68
2023/05/07 06:54:07;;;;;;;;;;;17.40;99.90;;;;;;5066899;28;20015;-66
2023/05/07 06:56:36;;;;;;;;;;;17.50;99.90;;;;;;5059687;28;19967;-68
2023/05/07 06:59:05;;;;;;;;;;;17.70;99.90;;;;;;5066530;28;19924;-67
2023/05/07 07:01:36;;;;;;;;;;;17.90;99.90;;;;;;5072831;28;19943;-68
2023/05/07 07:04:06;;;;;;;;;;;17.90;99.90;;;;;;5069668;28;19931;-67
2023/05/07 07:06:33;;;;;;;;;;;18.00;99.90;;;;;;5069220;28;19924;-67
2023/05/07 07:09:02;;;;;;;;;;;18.00;99.90;;;;;;5079230;28;19924;-68
2023/05/07 07:11:30;;;;;;;;;;;18.10;99.90;;;;;;5067391;28;19924;-67
2023/05/07 07:13:58;;;;;;;;;;;18.30;99.90;;;;;;5065615;28;19925;-68
2023/05/07 07:16:25;;;;;;;;;;;18.40;99.90;;;;;;5057983;28;19925;-66
2023/05/07 07:18:52;;;;;;;;;;;18.40;99.90;;;;;;5086189;28;19970;-68
2023/05/07 07:21:22;;;;;;;;;;;18.50;99.90;;;;;;5060099;28;19959;-67
2023/05/07 07:23:49;;;;;;;;;;;18.50;99.90;;;;;;5066600;28;19931;-68
2023/05/07 07:26:18;;;;;;;;;;;18.50;99.90;;;;;;5065949;28;20315;-67
2023/05/07 07:28:45;;;;;;;;;;;18.40;99.90;;;;;;5060890;28;19932;-67
2023/05/07 07:31:12;;;;;;;;;;;18.50;99.90;;;;;;5058155;28;20027;-67
2023/05/07 07:33:39;;;;;;;;;;;18.50;99.90;;;;;;5068642;28;19973;-67
2023/05/07 07:36:07;;;;;;;;;;;18.60;99.90;;;;;;5060560;28;19928;-67
2023/05/07 07:38:35;;;;;;;;;;;18.80;99.90;;;;;;5068969;28;19924;-67
2023/05/07 07:41:03;;;;;;;;;;;18.80;99.90;;;;;;5065526;28;19925;-68
2023/05/07 07:43:31;;;;;;;;;;;19.00;99.90;;;;;;5062670;28;20024;-68
2023/05/07 07:45:57;;;;;;;;;;;19.30;99.90;;;;;;5059518;28;19971;-68
2023/05/07 07:48:25;;;;;;;;;;;19.50;99.90;;;;;;5070324;28;20009;-68
2023/05/07 07:50:52;;;;;;;;;;;19.60;99.90;;;;;;5067436;28;19956;-67
2023/05/07 07:53:19;;;;;;;;;;;19.70;99.90;;;;;;5061384;28;20409;-67
2023/05/07 07:55:48;;;;;;;;;;;19.70;99.90;;;;;;5068628;28;19924;-68
2023/05/07 07:58:18;;;;;;;;;;;19.80;99.90;;;;;;5070810;28;20015;-67
2023/05/07 08:00:45;;;;;;;;;;;19.70;99.90;;;;;;5064102;28;20019;-68
2023/05/07 08:03:14;;;;;;;;;;;19.80;99.90;;;;;;5068310;28;20358;-68
2023/05/07 08:05:45;;;;;;;;;;;19.90;99.90;;;;;;5067404;28;20380;-67
2023/05/07 08:08:11;;;;;;;;;;;20.10;99.90;;;;;;5071636;28;19924;-68
2023/05/07 08:10:40;;;;;;;;;;;20.20;99.90;;;;;;5066106;28;20310;-67
2023/05/07 08:13:15;;;;;;;;;;;20.40;99.90;;;;;;5065630;28;19924;-68
2023/05/07 08:15:43;;;;;;;;;;;20.50;99.90;;;;;;5071612;28;19973;-68
2023/05/07 08:18:11;;;;;;;;;;;20.50;99.90;;;;;;5069806;28;19993;-68
2023/05/07 08:20:39;;;;;;;;;;;20.70;99.90;;;;;;5086939;28;19936;-68
2023/05/07 08:23:07;;;;;;;;;;;20.60;99.90;;;;;;5064835;28;20375;-68
2023/05/07 08:25:34;;;;;;;;;;;20.70;99.90;;;;;;5070909;28;19925;-67
2023/05/07 08:28:03;;;;;;;;;;;20.50;99.90;;;;;;5071192;28;19928;-68
2023/05/07 08:30:31;;;;;;;;;;;20.30;99.90;;;;;;5065260;28;19929;-66
2023/05/07 08:32:58;;;;;;;;;;;20.40;99.90;;;;;;5071111;28;19931;-66
2023/05/07 08:35:26;;;;;;;;;;;20.40;99.90;;;;;;5064806;28;20299;-68
2023/05/07 08:37:53;;;;;;;;;;;20.60;99.90;;;;;;5067171;28;19972;-65
2023/05/07 08:40:21;;;;;;;;;;;20.60;99.90;;;;;;5083808;28;19935;-67
2023/05/07 08:42:50;;;;;;;;;;;20.70;99.90;;;;;;5072161;28;19924;-69
2023/05/07 08:45:18;;;;;;;;;;;20.90;99.90;;;;;;5075955;28;19968;-67
2023/05/07 08:47:47;;;;;;;;;;;21.20;99.90;;;;;;5060435;28;19924;-69
2023/05/07 08:50:17;;;;;;;;;;;21.50;99.90;;;;;;5074297;28;19931;-68
2023/05/07 08:52:44;;;;;;;;;;;21.80;99.90;;;;;;5063223;28;20399;-68
2023/05/07 08:55:13;;;;;;;;;;;21.90;99.90;;;;;;5067490;28;19960;-71
2023/05/07 08:57:40;;;;;;;;;;;22.00;99.90;;;;;;5063137;28;19964;-68
2023/05/07 09:00:09;;;;;;;;;;;22.10;99.90;;;;;;5070692;28;19951;-68
2023/05/07 09:02:38;;;;;;;;;;;22.20;99.90;;;;;;5067636;28;19925;-67
2023/05/07 09:05:08;;;;;;;;;;;22.30;99.90;;;;;;5061873;28;19931;-66
2023/05/07 09:07:37;;;;;;;;;;;22.40;99.90;;;;;;5068386;28;20372;-64
2023/05/07 09:10:06;;;;;;;;;;;22.60;99.90;;;;;;5068399;28;19947;-66
2023/05/07 09:12:36;;;;;;;;;;;22.70;99.90;;;;;;5065178;28;20047;-65
2023/05/07 09:15:04;;;;;;;;;;;22.90;99.90;;;;;;5064630;28;19925;-65
2023/05/07 09:17:32;;;;;;;;;;;22.80;99.90;;;;;;5064897;28;20291;-65
2023/05/07 09:20:04;;;;;;;;;;;22.70;99.90;;;;;;5064809;28;19928;-74
2023/05/07 09:22:33;;;;;;;;;;;22.80;99.90;;;;;;5065166;28;19932;-68
2023/05/07 09:25:05;;;;;;;;;;;22.70;99.90;;;;;;5067891;28;19931;-67
2023/05/07 09:27:32;;;;;;;;;;;22.80;99.90;;;;;;5056522;28;19974;-67
2023/05/07 09:30:00;;;;;;;;;;;22.70;99.90;;;;;;5062790;28;19931;-67
2023/05/07 09:32:27;;;;;;;;;;;22.70;99.90;;;;;;5072261;28;19924;-67
2023/05/07 09:34:55;;;;;;;;;;;22.80;99.90;;;;;;5081734;28;19924;-67
2023/05/07 09:37:26;;;;;;;;;;;22.60;99.90;;;;;;5077457;28;19925;-67
2023/05/07 09:39:55;;;;;;;;;;;22.70;99.90;;;;;;5064425;28;19924;-68
2023/05/07 09:42:24;;;;;;;;;;;22.90;99.90;;;;;;5067000;28;19929;-68
2023/05/07 09:44:52;;;;;;;;;;;23.20;99.90;;;;;;5061606;28;20011;-68
2023/05/07 09:47:24;;;;;;;;;;;23.20;99.90;;;;;;5066623;28;19924;-67
2023/05/07 09:49:56;;;;;;;;;;;23.20;99.90;;;;;;5058702;28;19931;-69
2023/05/07 09:52:24;;;;;;;;;;;23.40;99.90;;;;;;5059381;28;19928;-67
2023/05/07 09:54:55;;;;;;;;;;;23.40;99.90;;;;;;5086247;28;19990;-68
2023/05/07 09:57:26;;;;;;;;;;;23.50;99.90;;;;;;5058491;28;19932;-69
2023/05/07 09:59:58;;;;;;;;;;;23.80;99.90;;;;;;5063722;28;20349;-67
2023/05/07 10:02:29;;;;;;;;;;;24.10;99.90;;;;;;5057548;28;20368;-68
2023/05/07 10:04:57;;;;;;;;;;;24.40;99.90;;;;;;5061054;28;19947;-68
2023/05/07 10:07:29;;;;;;;;;;;24.60;99.90;;;;;;5061101;28;19924;-66
2023/05/07 10:10:02;;;;;;;;;;;24.80;99.90;;;;;;5067926;28;19970;-68
2023/05/07 10:12:38;;;;;;;;;;;25.00;99.90;;;;;;5057086;28;20017;-68
2023/05/07 10:15:10;;;;;;;;;;;25.20;99.90;;;;;;5063308;28;19924;-68
2023/05/07 10:17:38;;;;;;;;;;;25.50;99.90;;;;;;5060026;28;19925;-69
2023/05/07 10:20:06;;;;;;;;;;;25.60;99.90;;;;;;5060201;28;19925;-69
2023/05/07 10:22:35;;;;;;;;;;;25.70;99.90;;;;;;5069396;28;19925;-72
2023/05/07 10:25:04;;;;;;;;;;;25.60;99.90;;;;;;5064904;28;19967;-67
2023/05/07 10:27:32;;;;;;;;;;;25.70;99.90;;;;;;5064635;28;19928;-68
2023/05/07 10:30:04;;;;;;;;;;;25.70;99.90;;;;;;5072933;28;20406;-69
2023/05/07 10:32:39;;;;;;;;;;;25.60;99.90;;;;;;5079612;28;19929;-67
2023/05/07 10:35:12;;;;;;;;;;;25.70;99.90;;;;;;5083749;28;19924;-68
2023/05/07 10:37:40;;;;;;;;;;;25.80;99.90;;;;;;5072535;28;19924;-68
2023/05/07 10:40:09;;;;;;;;;;;25.40;99.90;;;;;;5077223;28;19924;-69
2023/05/07 10:42:37;;;;;;;;;;;25.40;99.90;;;;;;5068972;28;19932;-68
2023/05/07 10:45:16;;;;;;;;;;;25.30;99.90;;;;;;5068361;28;19964;-68
2023/05/07 10:48:03;;;;;;;;;;;25.10;99.90;;;;;;5066967;28;19924;-68
2023/05/07 10:50:30;;;;;;;;;;;25.00;99.90;;;;;;5070939;28;19978;-68
2023/05/07 10:53:32;;;;;;;;;;;25.00;99.90;;;;;;5070626;28;19925;-68
2023/05/07 10:56:28;;;;;;;;;;;24.90;99.90;;;;;;4976046;28;20381;-68
2023/05/07 10:59:27;;;;;;;;;;;24.70;99.90;;;;;;5071073;28;19974;-69
2023/05/07 11:01:58;;;;;;;;;;;24.70;99.90;;;;;;5072406;28;19929;-69
2023/05/07 11:04:44;;;;;;;;;;;25.00;99.90;;;;;;5069214;28;19947;-69
2023/05/07 11:07:25;;;;;;;;;;;25.10;99.90;;;;;;5070733;28;19931;-69
2023/05/07 11:09:58;;;;;;;;;;;25.30;99.90;;;;;;5081179;28;19932;-68
2023/05/07 11:12:56;;;;;;;;;;;25.70;99.90;;;;;;5073463;28;19931;-69
2023/05/07 11:15:39;;;;;;;;;;;25.90;99.90;;;;;;5076124;28;19964;-69
2023/05/07 11:18:14;;;;;;;;;;;25.60;99.90;;;;;;5069196;28;20311;-68
2023/05/07 11:20:55;;;;;;;;;;;25.60;99.90;;;;;;5065814;28;20018;-67
2023/05/07 11:23:50;;;;;;;;;;;26.00;99.90;;;;;;5070318;28;20132;-67
2023/05/07 11:26:24;;;;;;;;;;;26.30;99.90;;;;;;5065409;28;19924;-67
2023/05/07 11:28:54;;;;;;;;;;;26.50;99.90;;;;;;5083502;28;19979;-69
2023/05/07 11:31:23;;;;;;;;;;;26.40;99.90;;;;;;5075343;28;19925;-69
2023/05/07 11:33:50;;;;;;;;;;;26.20;99.90;;;;;;5077581;28;20433;-68
2023/05/07 11:36:20;;;;;;;;;;;26.50;99.90;;;;;;5066661;28;19924;-69
2023/05/07 11:38:49;;;;;;;;;;;26.90;99.90;;;;;;5066242;28;19939;-69
2023/05/07 11:41:17;;;;;;;;;;;27.40;99.90;;;;;;5071925;28;19925;-69
2023/05/07 11:43:58;;;;;;;;;;;27.70;99.90;;;;;;5087724;28;20019;-69
2023/05/07 11:46:25;;;;;;;;;;;28.00;99.90;;;;;;5069354;28;19931;-69
2023/05/07 11:48:51;;;;;;;;;;;27.90;99.90;;;;;;5063592;28;19925;-69
2023/05/07 11:51:22;;;;;;;;;;;27.70;99.90;;;;;;5066390;28;19928;-73
2023/05/07 11:53:49;;;;;;;;;;;27.50;99.90;;;;;;5069705;28;19931;-69
2023/05/07 11:56:17;;;;;;;;;;;27.10;99.90;;;;;;5065831;28;20377;-68
2023/05/07 11:58:44;;;;;;;;;;;26.90;99.90;;;;;;5068940;28;20292;-69
2023/05/07 12:01:13;;;;;;;;;;;26.70;99.90;;;;;;5058528;28;19928;-69
2023/05/07 12:03:42;;;;;;;;;;;26.10;99.90;;;;;;5066946;28;19924;-69
2023/05/07 12:06:09;;;;;;;;;;;25.40;99.90;;;;;;5071393;28;19924;-69
2023/05/07 12:08:37;;;;;;;;;;;24.90;99.90;;;;;;5063541;28;19932;-67
2023/05/07 12:11:04;;;;;;;;;;;24.30;99.90;;;;;;5066773;28;20019;-69
2023/05/07 12:13:31;;;;;;;;;;;23.90;99.90;;;;;;5067752;28;19928;-69
2023/05/07 12:15:58;;;;;;;;;;;23.70;99.90;;;;;;5064053;28;19932;-68
2023/05/07 12:18:26;;;;;;;;;;;23.40;99.90;;;;;;5069364;28;19932;-69
2023/05/07 12:20:53;;;;;;;;;;;23.10;99.90;;;;;;5087763;28;19928;-69
2023/05/07 12:23:20;;;;;;;;;;;22.80;99.90;;;;;;5067321;28;19932;-68
2023/05/07 12:25:47;;;;;;;;;;;22.70;99.90;;;;;;5067856;28;19928;-68
2023/05/07 12:28:15;;;;;;;;;;;22.60;99.90;;;;;;5070940;28;19928;-68
2023/05/07 12:30:42;;;;;;;;;;;22.40;99.90;;;;;;5062394;28;19924;-69
2023/05/07 12:33:10;;;;;;;;;;;22.20;99.90;;;;;;5081378;28;19932;-67
2023/05/07 12:35:39;;;;;;;;;;;22.00;99.90;;;;;;5070000;28;20013;-67
2023/05/07 12:38:08;;;;;;;;;;;21.70;99.90;;;;;;5061904;28;19925;-68
2023/05/07 12:40:39;;;;;;;;;;;21.50;99.90;;;;;;5070837;28;19929;-68
2023/05/07 12:43:05;;;;;;;;;;;21.40;99.90;;;;;;5064353;28;19929;-68
2023/05/07 12:45:32;;;;;;;;;;;21.40;99.90;;;;;;5073356;28;20461;-67
2023/05/07 12:48:02;;;;;;;;;;;21.10;99.90;;;;;;5064017;28;19932;-68
2023/05/07 12:50:31;;;;;;;;;;;21.00;99.90;;;;;;5069133;28;19925;-68
2023/05/07 12:53:00;;;;;;;;;;;21.00;99.90;;;;;;5058741;28;19970;-68
2023/05/07 12:55:27;;;;;;;;;;;21.10;99.90;;;;;;5063865;28;19933;-68
2023/05/07 12:57:53;;;;;;;;;;;21.10;99.90;;;;;;5085411;28;20403;-68
2023/05/07 13:00:33;;;;;;;;;;;21.00;99.90;;;;;;5065660;28;19932;-68
2023/05/07 13:02:59;;;;;;;;;;;21.00;99.90;;;;;;5063616;28;19974;-68
2023/05/07 13:05:26;;;;;;;;;;;21.00;99.90;;;;;;5074464;28;19947;-68
2023/05/07 13:07:53;;;;;;;;;;;20.80;99.90;;;;;;5069350;28;19935;-68
2023/05/07 13:10:22;;;;;;;;;;;20.70;99.90;;;;;;5069701;28;20394;-66
2023/05/07 13:12:49;;;;;;;;;;;20.60;99.90;;;;;;5063534;28;19936;-67
2023/05/07 13:15:16;;;;;;;;;;;20.40;99.90;;;;;;5070274;28;19931;-68
2023/05/07 13:17:43;;;;;;;;;;;20.30;99.90;;;;;;5064508;28;19978;-67
2023/05/07 13:20:11;;;;;;;;;;;20.40;99.90;;;;;;5060988;28;19925;-69
2023/05/07 13:22:38;;;;;;;;;;;20.50;99.90;;;;;;5065501;28;19931;-67
2023/05/07 13:25:05;;;;;;;;;;;20.30;99.90;;;;;;5059367;28;19964;-67
2023/05/07 13:27:36;;;;;;;;;;;20.30;99.90;;;;;;5068962;28;20205;-67
2023/05/07 13:30:03;;;;;;;;;;;20.30;99.90;;;;;;5061995;28;20384;-68
2023/05/07 13:32:31;;;;;;;;;;;20.60;99.90;;;;;;5060435;28;19928;-68
2023/05/07 13:34:57;;;;;;;;;;;20.80;99.90;;;;;;5087257;28;19925;-68
2023/05/07 13:37:24;;;;;;;;;;;21.10;99.90;;;;;;5065760;28;19929;-68
2023/05/07 13:39:51;;;;;;;;;;;21.20;99.90;;;;;;5069028;28;20403;-72
2023/05/07 13:42:18;;;;;;;;;;;21.30;99.90;;;;;;5087313;28;19932;-68
2023/05/07 13:44:46;;;;;;;;;;;21.40;99.90;;;;;;5063943;28;19928;-68
2023/05/07 13:47:13;;;;;;;;;;;21.40;99.90;;;;;;5066579;28;19924;-68
2023/05/07 13:49:40;;;;;;;;;;;21.20;99.90;;;;;;5063625;28;19970;-68
2023/05/07 13:52:06;;;;;;;;;;;21.10;99.90;;;;;;5065201;28;20361;-67
2023/05/07 13:54:33;;;;;;;;;;;21.10;99.90;;;;;;5067097;28;19931;-68
2023/05/07 13:57:00;;;;;;;;;;;21.40;99.90;;;;;;5061488;28;20285;-68
2023/05/07 13:59:26;;;;;;;;;;;21.20;99.90;;;;;;5080377;28;20350;-68
2023/05/07 14:01:55;;;;;;;;;;;20.90;99.90;;;;;;5063039;28;20383;-68
2023/05/07 14:04:22;;;;;;;;;;;21.00;99.90;;;;;;5063185;28;20371;-68
2023/05/07 14:06:48;;;;;;;;;;;21.30;99.90;;;;;;5066038;28;19925;-68
2023/05/07 14:09:15;;;;;;;;;;;21.60;99.90;;;;;;5062051;28;20468;-68
2023/05/07 14:11:42;;;;;;;;;;;21.80;99.90;;;;;;5062114;28;19975;-66
2023/05/07 14:14:10;;;;;;;;;;;21.80;99.90;;;;;;5069210;28;19928;-67
2023/05/07 14:16:37;;;;;;;;;;;21.60;99.90;;;;;;5063432;28;19925;-67
2023/05/07 14:19:05;;;;;;;;;;;21.40;99.90;;;;;;5070875;28;20458;-65
2023/05/07 14:21:32;;;;;;;;;;;21.40;99.90;;;;;;5072006;28;19932;-67
2023/05/07 14:23:59;;;;;;;;;;;21.40;99.90;;;;;;5087611;28;19932;-66
2023/05/07 14:26:26;;;;;;;;;;;21.40;99.90;;;;;;5064729;28;20289;-67